Shin-oh Maru — JG5594 — position and weather

sailwx.info

Track history (hours):
 
Tides and Currents Weather Stations Pressure Air Temp Water Temp Dewpoint Dewpoint Depression Visibility Wind Speed Wind Dir Waves Ship Positions

Shin-oh Maru

Last reported at 2014-Nov-21 15:31 UTC. Time now 2014-Nov-23 03:24 UTC.
Position N 35°06' E 139°44'.

Length 161 m; draft 7 m.

Type: Ship (hazmat cat A). MMSI: 431100859.

Date/timePositionNaut miles runAvg speedWind from/ knotsBaromVisibWave heightAir tempDewpointWater temp
2014-Nov-21 15:31N 35°06' E 139°44'1414.7
2014-Nov-21 14:33N 35°20' E 139°43'1515.2
2014-Nov-21 13:33N 35°34' E 139°49'4 0.6
2014-Nov-21 07:34N 35°37' E 139°46'1413.9
2014-Nov-21 06:33N 35°23' E 139°46'1312.8
2014-Nov-21 05:33N 35°10' E 139°47'  
2014-Nov-18 15:04N 35°11' E 139°46'713.3
2014-Nov-18 14:34N 35°18' E 139°44'1615.5
2014-Nov-18 13:34N 35°32' E 139°51'6 0.5
2014-Nov-17 23:31N 35°38' E 139°46'7 5.9
2014-Nov-17 22:25N 35°34' E 139°52'0 0.1
2014-Nov-17 21:28N 35°34' E 139°52'0 0.1
2014-Nov-17 20:31N 35°34' E 139°52'0 0.0
2014-Nov-17 19:31N 35°34' E 139°52'0 0.0
2014-Nov-17 18:28N 35°34' E 139°52'0 0.0
2014-Nov-17 17:31N 35°34' E 139°52'0 0.0
2014-Nov-17 16:31N 35°34' E 139°52'0 0.0
2014-Nov-17 15:28N 35°34' E 139°52'0 0.0
2014-Nov-17 14:31N 35°34' E 139°52'0 0.0
2014-Nov-17 13:28N 35°34' E 139°52'0 0.0
2014-Nov-17 12:10N 35°34' E 139°52'0 0.1
2014-Nov-17 11:31N 35°34' E 139°52'0 0.0
2014-Nov-17 10:19N 35°34' E 139°52'0 0.1
2014-Nov-17 09:28N 35°34' E 139°52'0 0.0
2014-Nov-17 08:19N 35°34' E 139°52'0 0.1
2014-Nov-17 07:29N 35°34' E 139°52'1314.4
2014-Nov-17 06:33N 35°22' E 139°45'1413.7
2014-Nov-17 05:33N 35°08' E 139°47'  
2014-Nov-14 15:33N 35°11' E 139°46'1414.1
2014-Nov-14 14:33N 35°25' E 139°43'13 2.1
2014-Nov-14 08:19N 35°38' E 139°46'911.9
2014-Nov-14 07:33N 35°31' E 139°52'1414.2
2014-Nov-14 06:34N 35°18' E 139°45'  
Track history (hours):
 
Tides and Currents Weather Stations Pressure Air Temp Water Temp Dewpoint Dewpoint Depression Visibility Wind Speed Wind Dir Waves Ship Positions

Shin-oh Maru

Last reported at 2014-Nov-21 15:31 UTC. Time now 2014-Nov-23 03:24 UTC.
Position N 35°06' E 139°44'.

Length 161 m; draft 7 m.

Type: Ship (hazmat cat A). MMSI: 431100859.

Date/timePositionNaut miles runAvg speedWind from/ knotsBaromVisibWave heightAir tempDewpointWater temp
2014-Nov-21 15:31N 35°06' E 139°44'1414.7
2014-Nov-21 14:33N 35°20' E 139°43'1515.2
2014-Nov-21 13:33N 35°34' E 139°49'4 0.6
2014-Nov-21 07:34N 35°37' E 139°46'1413.9
2014-Nov-21 06:33N 35°23' E 139°46'1312.8
2014-Nov-21 05:33N 35°10' E 139°47'  
2014-Nov-18 15:04N 35°11' E 139°46'713.3
2014-Nov-18 14:34N 35°18' E 139°44'1615.5
2014-Nov-18 13:34N 35°32' E 139°51'6 0.5
2014-Nov-17 23:31N 35°38' E 139°46'7 5.9
2014-Nov-17 22:25N 35°34' E 139°52'0 0.1
2014-Nov-17 21:28N 35°34' E 139°52'0 0.1
2014-Nov-17 20:31N 35°34' E 139°52'0 0.0
2014-Nov-17 19:31N 35°34' E 139°52'0 0.0
2014-Nov-17 18:28N 35°34' E 139°52'0 0.0
2014-Nov-17 17:31N 35°34' E 139°52'0 0.0
2014-Nov-17 16:31N 35°34' E 139°52'0 0.0
2014-Nov-17 15:28N 35°34' E 139°52'0 0.0
2014-Nov-17 14:31N 35°34' E 139°52'0 0.0
2014-Nov-17 13:28N 35°34' E 139°52'0 0.0
2014-Nov-17 12:10N 35°34' E 139°52'0 0.1
2014-Nov-17 11:31N 35°34' E 139°52'0 0.0
2014-Nov-17 10:19N 35°34' E 139°52'0 0.1
2014-Nov-17 09:28N 35°34' E 139°52'0 0.0
2014-Nov-17 08:19N 35°34' E 139°52'0 0.1
2014-Nov-17 07:29N 35°34' E 139°52'1314.4
2014-Nov-17 06:33N 35°22' E 139°45'1413.7
2014-Nov-17 05:33N 35°08' E 139°47'  
2014-Nov-14 15:33N 35°11' E 139°46'1414.1
2014-Nov-14 14:33N 35°25' E 139°43'13 2.1
2014-Nov-14 08:19N 35°38' E 139°46'911.9
2014-Nov-14 07:33N 35°31' E 139°52'1414.2
2014-Nov-14 06:34N 35°18' E 139°45'  

Dump ship's entire track history